createdAt,value
2018-05-01T00:00:55.640Z,989.72
2018-05-01T00:01:55.606Z,989.72
2018-05-01T00:02:55.579Z,989.75
2018-05-01T00:03:55.558Z,989.76
2018-05-01T00:04:55.535Z,989.93
2018-05-01T00:05:55.499Z,989.78
2018-05-01T00:06:55.475Z,989.75
2018-05-01T00:07:55.452Z,989.95
2018-05-01T00:08:55.419Z,989.92
2018-05-01T00:09:55.399Z,989.83
2018-05-01T00:10:55.372Z,989.92
2018-05-01T00:11:55.344Z,989.83
2018-05-01T00:12:55.318Z,989.86
2018-05-01T00:13:55.288Z,989.73
2018-05-01T00:14:55.256Z,989.74
2018-05-01T00:15:55.239Z,989.91
2018-05-01T00:16:55.212Z,990.04
2018-05-01T00:17:55.178Z,989.92
2018-05-01T00:18:55.148Z,989.86
2018-05-01T00:19:55.132Z,989.87
2018-05-01T00:20:55.096Z,990.08
2018-05-01T00:21:55.073Z,990.12
2018-05-01T00:22:55.050Z,989.95
2018-05-01T00:23:55.014Z,989.90
2018-05-01T00:24:54.997Z,989.98
2018-05-01T00:25:54.958Z,990.04
2018-05-01T00:26:54.941Z,990.03
2018-05-01T00:27:54.910Z,990.10
2018-05-01T00:28:54.880Z,990.21
2018-05-01T00:29:54.860Z,989.99
2018-05-01T00:30:54.824Z,990.04
2018-05-01T00:31:54.804Z,990.03
2018-05-01T00:32:54.780Z,990.07
2018-05-01T00:33:54.748Z,990.04
2018-05-01T00:34:54.727Z,990.05
2018-05-01T00:35:54.694Z,990.13
2018-05-01T00:36:54.667Z,990.03
2018-05-01T00:37:54.638Z,990.10
2018-05-01T00:38:54.614Z,990.06
2018-05-01T00:39:54.591Z,990.02
2018-05-01T00:40:54.557Z,990.28
2018-05-01T00:41:54.536Z,990.20
2018-05-01T00:42:54.512Z,990.15
2018-05-01T00:43:54.478Z,990.20
2018-05-01T00:44:54.458Z,990.19
2018-05-01T00:45:54.420Z,990.13
2018-05-01T00:46:54.394Z,990.19
2018-05-01T00:47:54.375Z,990.22
2018-05-01T00:48:54.341Z,990.23
2018-05-01T00:49:54.321Z,990.24
2018-05-01T00:50:54.292Z,990.19
2018-05-01T00:51:54.268Z,990.31
2018-05-01T00:52:54.244Z,990.17
2018-05-01T00:53:54.211Z,990.16
2018-05-01T00:54:54.181Z,990.31
2018-05-01T00:55:54.159Z,990.33
2018-05-01T00:56:54.129Z,990.21
2018-05-01T00:57:54.101Z,990.27
2018-05-01T00:58:54.078Z,990.43
2018-05-01T00:59:54.058Z,990.31
2018-05-01T01:00:54.023Z,990.74
2018-05-01T01:01:53.994Z,990.29
2018-05-01T01:02:53.967Z,990.31
2018-05-01T01:03:53.942Z,990.41
2018-05-01T01:04:53.912Z,990.44
2018-05-01T01:05:53.891Z,990.39
2018-05-01T01:06:53.863Z,990.41
2018-05-01T01:07:53.833Z,990.37
2018-05-01T01:08:53.810Z,990.39
2018-05-01T01:09:53.773Z,990.49
2018-05-01T01:10:53.745Z,990.48
2018-05-01T01:11:53.730Z,990.40
2018-05-01T01:12:53.700Z,990.42
2018-05-01T01:13:53.676Z,990.46
2018-05-01T01:14:53.647Z,990.74
2018-05-01T01:15:53.612Z,990.48
2018-05-01T01:16:53.589Z,990.51
2018-05-01T01:17:53.566Z,990.44
2018-05-01T01:18:53.531Z,990.24
2018-05-01T01:19:53.513Z,990.53
2018-05-01T01:20:53.484Z,990.42
2018-05-01T01:21:53.458Z,990.65
2018-05-01T01:22:53.432Z,990.44
2018-05-01T01:23:53.410Z,990.76
2018-05-01T01:24:53.372Z,990.57
2018-05-01T01:25:53.351Z,990.73
2018-05-01T01:26:53.323Z,990.74
2018-05-01T01:27:53.295Z,990.61
2018-05-01T01:28:53.271Z,990.61
2018-05-01T01:29:53.242Z,990.67
2018-05-01T01:30:53.211Z,990.69
2018-05-01T01:31:53.185Z,990.67
2018-05-01T01:32:53.160Z,990.58
2018-05-01T01:33:53.137Z,990.50
2018-05-01T01:34:53.102Z,990.68
2018-05-01T01:35:53.081Z,990.79
2018-05-01T01:36:53.049Z,990.68
2018-05-01T01:37:53.028Z,990.72
2018-05-01T01:38:53.004Z,990.69
2018-05-01T01:39:52.965Z,990.60
2018-05-01T01:40:52.941Z,990.88
2018-05-01T01:41:52.913Z,990.70
2018-05-01T01:42:52.892Z,990.71
2018-05-01T01:43:52.865Z,990.77
2018-05-01T01:44:52.841Z,990.76
2018-05-01T01:45:52.815Z,990.72
2018-05-01T01:46:52.784Z,990.75
2018-05-01T01:47:52.751Z,990.63
2018-05-01T01:48:52.731Z,990.93
2018-05-01T01:49:52.700Z,990.86
2018-05-01T01:50:52.670Z,990.85
2018-05-01T01:51:52.653Z,990.84
2018-05-01T01:52:52.619Z,990.53
2018-05-01T01:53:52.592Z,990.91
2018-05-01T01:54:52.566Z,990.78
2018-05-01T01:55:52.537Z,990.81
2018-05-01T01:56:52.506Z,990.98
2018-05-01T01:57:52.481Z,990.86
2018-05-01T01:58:52.463Z,990.90
2018-05-01T01:59:52.432Z,990.88
2018-05-01T02:00:52.408Z,990.66
2018-05-01T02:01:52.379Z,990.86
2018-05-01T02:02:52.346Z,990.87
2018-05-01T02:03:52.330Z,991.03
2018-05-01T02:04:52.298Z,990.90
2018-05-01T02:05:52.270Z,990.85
2018-05-01T02:06:52.242Z,990.83
2018-05-01T02:07:52.220Z,990.86
2018-05-01T02:08:52.198Z,990.96
2018-05-01T02:09:52.158Z,990.97
2018-05-01T02:10:52.138Z,990.83
2018-05-01T02:11:52.115Z,991.00
2018-05-01T02:12:52.081Z,991.03
2018-05-01T02:13:52.059Z,991.01
2018-05-01T02:14:52.028Z,990.95
2018-05-01T02:15:52.005Z,990.96
2018-05-01T02:16:51.975Z,991.11
2018-05-01T02:17:51.949Z,991.05
2018-05-01T02:18:51.921Z,991.03
2018-05-01T02:19:51.892Z,990.94
2018-05-01T02:20:51.864Z,991.07
2018-05-01T02:21:51.846Z,990.98
2018-05-01T02:22:51.808Z,991.10
2018-05-01T02:23:51.789Z,991.17
2018-05-01T02:24:51.753Z,991.12
2018-05-01T02:25:51.732Z,991.20
2018-05-01T02:26:51.698Z,991.17
2018-05-01T02:27:51.676Z,991.08
2018-05-01T02:28:51.650Z,991.06
2018-05-01T02:29:51.619Z,991.16
2018-05-01T02:30:51.603Z,991.22
2018-05-01T02:31:51.569Z,991.09
2018-05-01T02:32:51.547Z,991.16
2018-05-01T02:33:51.615Z,991.21
2018-05-01T02:34:51.485Z,991.25
2018-05-01T02:35:51.462Z,991.21
2018-05-01T02:36:51.438Z,991.33
2018-05-01T02:37:51.404Z,991.35
2018-05-01T02:38:51.376Z,991.22
2018-05-01T02:39:51.357Z,991.31
2018-05-01T02:40:51.327Z,991.33
2018-05-01T02:41:51.301Z,991.27
2018-05-01T02:42:51.266Z,991.59
2018-05-01T02:43:51.258Z,991.26
2018-05-01T02:44:51.225Z,991.55
2018-05-01T02:45:51.190Z,991.33
2018-05-01T02:46:51.168Z,991.38
2018-05-01T02:47:51.134Z,991.43
2018-05-01T02:48:51.109Z,991.40
2018-05-01T02:49:51.083Z,991.14
2018-05-01T02:50:51.052Z,991.51
2018-05-01T02:51:51.033Z,991.49
2018-05-01T02:52:51.008Z,991.42
2018-05-01T02:53:50.973Z,991.39
2018-05-01T02:54:50.947Z,991.47
2018-05-01T02:55:50.927Z,991.46
2018-05-01T02:56:50.898Z,991.53
2018-05-01T02:57:50.862Z,991.53
2018-05-01T02:58:50.839Z,991.42
2018-05-01T02:59:50.820Z,991.54
2018-05-01T03:00:50.789Z,991.53
2018-05-01T03:01:50.761Z,991.57
2018-05-01T03:02:50.734Z,991.66
2018-05-01T03:03:50.704Z,991.62
2018-05-01T03:04:50.684Z,991.59
2018-05-01T03:05:50.652Z,991.58
2018-05-01T03:06:50.623Z,991.53
2018-05-01T03:07:50.603Z,991.61
2018-05-01T03:08:50.578Z,991.62
2018-05-01T03:09:50.570Z,991.55
2018-05-01T03:10:50.519Z,991.55
2018-05-01T03:11:50.491Z,991.71
2018-05-01T03:12:50.466Z,991.63
2018-05-01T03:13:50.435Z,991.42
2018-05-01T03:14:50.406Z,991.59
2018-05-01T03:15:50.382Z,991.63
2018-05-01T03:16:50.352Z,991.71
2018-05-01T03:17:50.341Z,991.73
2018-05-01T03:18:50.307Z,991.72
2018-05-01T03:19:50.272Z,991.65
2018-05-01T03:20:50.254Z,991.66
2018-05-01T03:21:50.224Z,991.75
2018-05-01T03:22:50.190Z,991.80
2018-05-01T03:23:50.179Z,991.74
2018-05-01T03:24:50.137Z,991.73
2018-05-01T03:25:50.117Z,991.73
2018-05-01T03:26:50.091Z,991.55
2018-05-01T03:27:50.056Z,991.67
2018-05-01T03:28:50.031Z,991.78
2018-05-01T03:29:50.008Z,991.75
2018-05-01T03:30:49.984Z,991.68
2018-05-01T03:31:49.953Z,991.74
2018-05-01T03:32:49.931Z,991.69
2018-05-01T03:33:49.891Z,991.86
2018-05-01T03:34:49.867Z,991.83
2018-05-01T03:35:49.849Z,991.77
2018-05-01T03:36:49.812Z,991.79
2018-05-01T03:37:49.792Z,991.89
2018-05-01T03:38:49.767Z,991.88
2018-05-01T03:39:49.744Z,991.87
2018-05-01T03:40:49.713Z,991.91
2018-05-01T03:41:49.677Z,991.89
2018-05-01T03:42:49.653Z,991.96
2018-05-01T03:43:49.634Z,991.76
2018-05-01T03:44:49.597Z,991.91
2018-05-01T03:45:49.580Z,992.09
2018-05-01T03:46:49.548Z,991.95
2018-05-01T03:47:49.518Z,991.93
2018-05-01T03:48:49.495Z,991.82
2018-05-01T03:49:49.464Z,991.81
2018-05-01T03:50:49.438Z,992.08
2018-05-01T03:51:49.413Z,991.92
2018-05-01T03:52:49.381Z,991.94
2018-05-01T03:53:49.362Z,991.86
2018-05-01T03:54:49.332Z,992.05
2018-05-01T03:55:49.396Z,992.04
2018-05-01T03:56:49.277Z,992.04
2018-05-01T03:57:49.251Z,991.89
2018-05-01T03:58:49.236Z,992.03
2018-05-01T03:59:49.197Z,992.07
2018-05-01T04:00:49.169Z,992.13
2018-05-01T04:01:49.144Z,992.13
2018-05-01T04:02:49.122Z,992.10
2018-05-01T04:03:49.086Z,992.25
2018-05-01T04:04:49.066Z,992.24
2018-05-01T04:05:49.032Z,992.15
2018-05-01T04:06:49.006Z,992.31
2018-05-01T04:07:48.986Z,992.29
2018-05-01T04:08:48.956Z,992.22
2018-05-01T04:09:48.931Z,992.25
2018-05-01T04:10:48.897Z,992.24
2018-05-01T04:11:48.875Z,992.16
2018-05-01T04:12:48.849Z,992.22
2018-05-01T04:13:48.813Z,992.49
2018-05-01T04:14:48.795Z,992.26
2018-05-01T04:15:48.762Z,992.42
2018-05-01T04:16:48.734Z,992.66
2018-05-01T04:17:48.715Z,992.36
2018-05-01T04:18:48.676Z,992.57
2018-05-01T04:19:48.654Z,992.20
2018-05-01T04:20:48.631Z,992.55
2018-05-01T04:21:48.601Z,992.49
2018-05-01T04:22:48.579Z,992.61
2018-05-01T04:23:48.546Z,992.54
2018-05-01T04:24:48.522Z,992.58
2018-05-01T04:25:48.490Z,992.56
2018-05-01T04:26:48.463Z,992.59
2018-05-01T04:27:48.444Z,992.62
2018-05-01T04:28:48.410Z,992.51
2018-05-01T04:29:48.389Z,992.65
2018-05-01T04:30:48.364Z,992.60
2018-05-01T04:31:48.333Z,992.58
2018-05-01T04:32:48.312Z,992.73
2018-05-01T04:33:48.279Z,992.58
2018-05-01T04:34:48.251Z,992.74
2018-05-01T04:35:48.221Z,992.71
2018-05-01T04:36:48.198Z,992.69
2018-05-01T04:37:48.172Z,992.73
2018-05-01T04:38:48.145Z,992.76
2018-05-01T04:39:48.115Z,992.75
2018-05-01T04:40:48.092Z,992.76
2018-05-01T04:41:48.076Z,992.76
2018-05-01T04:42:48.034Z,992.93
2018-05-01T04:43:48.008Z,992.85
2018-05-01T04:44:47.991Z,993.02
2018-05-01T04:45:47.949Z,992.86
2018-05-01T04:46:47.938Z,992.91
2018-05-01T04:47:47.906Z,993.00
2018-05-01T04:48:47.875Z,992.98
2018-05-01T04:49:47.843Z,993.13
2018-05-01T04:50:47.815Z,993.05
2018-05-01T04:51:47.876Z,992.93
2018-05-01T04:52:47.764Z,993.03
2018-05-01T04:53:47.739Z,993.08
2018-05-01T04:54:47.711Z,993.10
2018-05-01T04:55:47.681Z,993.13
2018-05-01T04:56:47.662Z,993.03
2018-05-01T04:57:47.632Z,993.13
2018-05-01T04:58:47.598Z,993.18
2018-05-01T04:59:47.582Z,993.17
2018-05-01T05:00:47.547Z,993.09
2018-05-01T05:01:47.528Z,993.16
2018-05-01T05:02:47.494Z,993.26
2018-05-01T05:03:47.472Z,993.22
2018-05-01T05:04:47.442Z,993.20
2018-05-01T05:05:47.417Z,993.10
2018-05-01T05:06:47.395Z,993.21
2018-05-01T05:07:47.360Z,993.21
2018-05-01T05:08:47.339Z,993.16
2018-05-01T05:09:47.309Z,993.17
2018-05-01T05:10:47.282Z,993.15
2018-05-01T05:11:47.275Z,993.29
2018-05-01T05:12:47.872Z,993.20
2018-05-01T05:13:47.199Z,993.29
2018-05-01T05:14:47.175Z,993.30
2018-05-01T05:15:47.145Z,993.35
2018-05-01T05:16:47.117Z,993.33
2018-05-01T05:17:47.092Z,993.36
2018-05-01T05:18:47.070Z,993.39
2018-05-01T05:19:47.062Z,993.28
2018-05-01T05:20:47.006Z,993.33
2018-05-01T05:21:46.986Z,993.43
2018-05-01T05:22:46.952Z,993.57
2018-05-01T05:23:46.928Z,993.43
2018-05-01T05:24:46.898Z,993.45
2018-05-01T05:25:46.879Z,993.44
2018-05-01T05:26:46.854Z,993.48
2018-05-01T05:27:46.818Z,993.56
2018-05-01T05:28:46.798Z,993.48
2018-05-01T05:29:46.770Z,993.59
2018-05-01T05:30:46.744Z,993.60
2018-05-01T05:31:46.711Z,993.50
2018-05-01T05:32:46.689Z,993.66
2018-05-01T05:33:46.658Z,993.56
2018-05-01T05:34:46.632Z,993.69
2018-05-01T05:35:46.606Z,993.68
2018-05-01T05:36:46.586Z,993.72
2018-05-01T05:37:46.548Z,993.72
2018-05-01T05:38:46.522Z,993.68
2018-05-01T05:39:46.500Z,993.77
2018-05-01T05:40:46.472Z,993.73
2018-05-01T05:41:46.447Z,993.71
2018-05-01T05:42:46.429Z,993.76
2018-05-01T05:43:46.394Z,993.79
2018-05-01T05:44:46.366Z,993.84
2018-05-01T05:45:46.344Z,993.80
2018-05-01T05:46:46.313Z,993.88
2018-05-01T05:47:46.280Z,993.74
2018-05-01T05:48:46.484Z,993.82
2018-05-01T05:49:46.223Z,993.83
2018-05-01T05:50:46.200Z,993.91
2018-05-01T05:51:46.179Z,993.94
2018-05-01T05:52:46.144Z,993.97
2018-05-01T05:53:46.132Z,993.99
2018-05-01T05:54:46.097Z,993.85
2018-05-01T05:55:46.070Z,993.93
2018-05-01T05:56:46.042Z,994.06
2018-05-01T05:57:46.018Z,994.04
2018-05-01T05:58:45.983Z,994.10
2018-05-01T05:59:45.999Z,994.11
2018-05-01T06:00:45.936Z,994.08
2018-05-01T06:01:45.904Z,994.01
2018-05-01T06:02:45.880Z,994.09
2018-05-01T06:03:45.851Z,994.11
2018-05-01T06:04:45.821Z,994.08
2018-05-01T06:05:45.800Z,994.11
2018-05-01T06:06:45.769Z,994.16
2018-05-01T06:07:45.822Z,994.14
2018-05-01T06:08:45.721Z,994.24
2018-05-01T06:09:45.688Z,994.14
2018-05-01T06:10:45.667Z,994.18
2018-05-01T06:11:45.637Z,994.28
2018-05-01T06:12:45.609Z,994.39
2018-05-01T06:13:45.623Z,994.33
2018-05-01T06:14:45.550Z,994.32
2018-05-01T06:15:45.534Z,994.38
2018-05-01T06:16:45.506Z,994.30
2018-05-01T06:17:45.480Z,994.32
2018-05-01T06:18:45.453Z,994.20
2018-05-01T06:19:45.420Z,994.54
2018-05-01T06:20:45.394Z,994.36
2018-05-01T06:21:45.376Z,994.38
2018-05-01T06:22:45.338Z,994.47
2018-05-01T06:23:45.326Z,994.54
2018-05-01T06:24:45.288Z,994.64
2018-05-01T06:25:45.260Z,994.44
2018-05-01T06:26:45.234Z,994.51
2018-05-01T06:27:45.211Z,994.51
2018-05-01T06:28:45.174Z,994.52
2018-05-01T06:29:45.155Z,994.58
2018-05-01T06:30:45.124Z,994.66
2018-05-01T06:31:45.100Z,994.64
2018-05-01T06:32:45.076Z,994.59
2018-05-01T06:33:45.044Z,994.64
2018-05-01T06:34:45.024Z,994.67
2018-05-01T06:35:44.988Z,994.67
2018-05-01T06:36:44.965Z,994.59
2018-05-01T06:37:44.934Z,994.75
2018-05-01T06:38:44.909Z,994.86
2018-05-01T06:39:44.886Z,994.86
2018-05-01T06:40:44.900Z,994.83
2018-05-01T06:41:44.830Z,994.87
2018-05-01T06:42:44.806Z,994.90
2018-05-01T06:43:44.776Z,994.79
2018-05-01T06:44:44.752Z,994.85
2018-05-01T06:45:44.720Z,994.98
2018-05-01T06:46:44.710Z,994.88
2018-05-01T06:47:44.676Z,995.04
2018-05-01T06:48:44.651Z,995.03
2018-05-01T06:49:44.611Z,995.01
2018-05-01T06:50:44.614Z,995.02
2018-05-01T06:51:44.564Z,995.03
2018-05-01T06:52:44.538Z,994.93
2018-05-01T06:53:44.510Z,995.03
2018-05-01T06:54:44.490Z,995.00
2018-05-01T06:55:44.454Z,994.97
2018-05-01T06:56:44.429Z,995.24
2018-05-01T06:57:44.461Z,995.04
2018-05-01T06:58:44.368Z,995.05
2018-05-01T06:59:44.346Z,995.13
2018-05-01T07:00:44.322Z,995.12
2018-05-01T07:01:44.289Z,995.37
2018-05-01T07:02:44.266Z,995.16
2018-05-01T07:03:44.235Z,995.17
2018-05-01T07:04:44.210Z,995.15
2018-05-01T07:05:44.188Z,995.15
2018-05-01T07:06:44.161Z,995.06
2018-05-01T07:07:44.136Z,995.23
2018-05-01T07:08:44.104Z,995.19
2018-05-01T07:09:44.072Z,995.31
2018-05-01T07:10:44.053Z,995.23
2018-05-01T07:11:44.027Z,995.25
2018-05-01T07:12:43.990Z,995.31
2018-05-01T07:13:43.975Z,995.36
2018-05-01T07:14:43.940Z,995.35
2018-05-01T07:15:43.931Z,995.40
2018-05-01T07:16:43.887Z,995.47
2018-05-01T07:17:43.870Z,995.39
2018-05-01T07:18:43.840Z,995.39
2018-05-01T07:19:43.806Z,995.39
2018-05-01T07:20:43.789Z,995.42
2018-05-01T07:21:43.751Z,995.53
2018-05-01T07:22:43.730Z,995.53
2018-05-01T07:23:43.700Z,995.63
2018-05-01T07:24:43.678Z,995.51
2018-05-01T07:25:43.646Z,995.59
2018-05-01T07:26:43.620Z,995.56
2018-05-01T07:27:43.596Z,995.52
2018-05-01T07:28:43.566Z,995.60
2018-05-01T07:29:43.546Z,995.51
2018-05-01T07:30:43.519Z,995.58
2018-05-01T07:31:43.483Z,995.42
2018-05-01T07:32:43.472Z,995.69
2018-05-01T07:33:43.428Z,995.60
2018-05-01T07:34:43.404Z,995.64
2018-05-01T07:35:43.385Z,995.86
2018-05-01T07:36:43.353Z,995.57
2018-05-01T07:37:43.334Z,995.75
2018-05-01T07:38:43.306Z,995.66
2018-05-01T07:39:43.269Z,995.84
2018-05-01T07:40:43.252Z,995.87
2018-05-01T07:41:43.275Z,995.74
2018-05-01T07:42:43.192Z,995.73
2018-05-01T07:43:43.172Z,995.75
2018-05-01T07:44:43.139Z,995.76
2018-05-01T07:45:43.118Z,995.74
2018-05-01T07:46:43.091Z,995.62
2018-05-01T07:47:43.061Z,995.77
2018-05-01T07:48:43.037Z,995.72
2018-05-01T07:49:43.010Z,995.89
2018-05-01T07:50:42.981Z,995.75
2018-05-01T07:51:42.957Z,995.79
2018-05-01T07:52:42.929Z,995.76
2018-05-01T07:53:42.903Z,995.90
2018-05-01T07:54:42.871Z,995.77
2018-05-01T07:55:42.855Z,995.94
2018-05-01T07:56:42.822Z,995.93
2018-05-01T07:57:42.793Z,995.84
2018-05-01T07:58:42.775Z,995.87
2018-05-01T07:59:42.745Z,995.85
2018-05-01T08:00:42.720Z,995.96
2018-05-01T08:01:42.686Z,995.88
2018-05-01T08:02:42.665Z,995.88
2018-05-01T08:03:42.639Z,995.93
2018-05-01T08:04:42.617Z,996.04
2018-05-01T08:05:42.579Z,996.03
2018-05-01T08:06:42.556Z,996.00
2018-05-01T08:07:42.528Z,996.02
2018-05-01T08:08:42.549Z,996.09
2018-05-01T08:09:42.481Z,996.08
2018-05-01T08:10:42.460Z,996.10
2018-05-01T08:11:42.419Z,996.02
2018-05-01T08:12:42.401Z,996.07
2018-05-01T08:13:42.373Z,996.03
2018-05-01T08:14:42.340Z,996.26
2018-05-01T08:15:42.315Z,996.27
2018-05-01T08:16:42.288Z,996.24
2018-05-01T08:17:42.268Z,996.20
2018-05-01T08:18:42.276Z,996.16
2018-05-01T08:19:42.215Z,996.14
2018-05-01T08:20:42.182Z,996.30
2018-05-01T08:21:42.164Z,996.22
2018-05-01T08:22:42.193Z,996.26
2018-05-01T08:23:42.123Z,996.32
2018-05-01T08:24:42.174Z,996.26
2018-05-01T08:25:42.047Z,996.45
2018-05-01T08:26:42.026Z,996.27
2018-05-01T08:27:42.049Z,996.31
2018-05-01T08:28:41.975Z,996.20
2018-05-01T08:29:41.944Z,996.28
2018-05-01T08:30:41.929Z,996.62
2018-05-01T08:31:41.899Z,996.29
2018-05-01T08:32:41.876Z,996.26
2018-05-01T08:33:41.837Z,996.30
2018-05-01T08:34:41.821Z,996.34
2018-05-01T08:35:41.786Z,996.44
2018-05-01T08:36:41.767Z,996.26
2018-05-01T08:37:41.787Z,996.22
2018-05-01T08:38:41.704Z,996.26
2018-05-01T08:39:41.686Z,996.46
2018-05-01T08:40:41.654Z,996.40
2018-05-01T08:41:41.632Z,996.62
2018-05-01T08:42:41.605Z,996.39
2018-05-01T08:43:41.572Z,996.39
2018-05-01T08:44:41.547Z,996.30
2018-05-01T08:45:41.525Z,996.35
2018-05-01T08:46:41.498Z,996.46
2018-05-01T08:47:41.470Z,996.47
2018-05-01T08:48:41.442Z,996.73
2018-05-01T08:49:41.422Z,996.59
2018-05-01T08:50:41.397Z,996.39
2018-05-01T08:51:41.366Z,996.57
2018-05-01T08:52:41.342Z,996.60
2018-05-01T08:53:41.311Z,996.59
2018-05-01T08:54:41.285Z,996.60
2018-05-01T08:55:41.260Z,996.49
2018-05-01T08:56:41.230Z,996.53
2018-05-01T08:57:41.209Z,996.51
2018-05-01T08:58:41.176Z,996.55
2018-05-01T08:59:41.158Z,996.54
2018-05-01T09:00:41.124Z,996.66
2018-05-01T09:01:41.098Z,996.58
2018-05-01T09:02:41.072Z,996.59
2018-05-01T09:03:41.096Z,996.70
2018-05-01T09:04:41.022Z,996.71
2018-05-01T09:05:41.013Z,996.79
2018-05-01T09:06:40.973Z,996.75
2018-05-01T09:07:41.559Z,996.72
2018-05-01T09:08:40.917Z,996.73
2018-05-01T09:09:40.889Z,996.73
2018-05-01T09:10:40.860Z,996.69
2018-05-01T09:11:40.841Z,996.71
2018-05-01T09:12:40.813Z,996.94
2018-05-01T09:13:40.785Z,996.82
2018-05-01T09:14:40.761Z,996.75
2018-05-01T09:15:40.744Z,996.81
2018-05-01T09:16:40.711Z,996.95
2018-05-01T09:17:40.712Z,997.23
2018-05-01T09:18:40.648Z,997.01
2018-05-01T09:19:40.626Z,996.94
2018-05-01T09:20:40.604Z,996.95
2018-05-01T09:21:40.572Z,997.00
2018-05-01T09:22:40.552Z,997.05
2018-05-01T09:23:40.519Z,997.02
2018-05-01T09:24:40.501Z,996.98
2018-05-01T09:25:40.548Z,996.99
2018-05-01T09:26:40.441Z,997.08
2018-05-01T09:27:40.416Z,997.23
2018-05-01T09:28:40.388Z,997.00
2018-05-01T09:29:40.376Z,996.96
2018-05-01T09:30:40.333Z,997.24
2018-05-01T09:31:40.316Z,997.09
2018-05-01T09:32:40.287Z,997.00
2018-05-01T09:33:40.256Z,997.02
2018-05-01T09:34:40.233Z,997.08
2018-05-01T09:35:40.207Z,997.11
2018-05-01T09:36:40.178Z,997.09
2018-05-01T09:37:40.149Z,997.34
2018-05-01T09:38:40.130Z,997.28
2018-05-01T09:39:40.101Z,997.08
2018-05-01T09:40:40.077Z,997.21
2018-05-01T09:41:40.048Z,997.12
2018-05-01T09:42:40.020Z,997.27
2018-05-01T09:43:39.999Z,997.34
2018-05-01T09:44:39.986Z,997.22
2018-05-01T09:45:39.972Z,997.24
2018-05-01T09:46:39.915Z,997.35
2018-05-01T09:47:39.938Z,997.36
2018-05-01T09:48:39.865Z,997.35
2018-05-01T09:49:39.841Z,997.34
2018-05-01T09:50:39.806Z,997.48
2018-05-01T09:51:39.783Z,997.40
2018-05-01T09:52:39.760Z,997.49
2018-05-01T09:53:39.741Z,997.19
2018-05-01T09:54:39.708Z,997.52
2018-05-01T09:55:39.680Z,997.25
2018-05-01T09:56:39.668Z,997.51
2018-05-01T09:57:39.644Z,997.42
2018-05-01T09:58:39.601Z,997.31
2018-05-01T09:59:39.578Z,997.30
2018-05-01T10:00:39.554Z,997.32
2018-05-01T10:01:39.546Z,997.31
2018-05-01T10:02:39.499Z,997.38
2018-05-01T10:03:39.472Z,997.56
2018-05-01T10:04:39.443Z,997.58
2018-05-01T10:05:39.417Z,997.39
2018-05-01T10:06:39.401Z,997.43
2018-05-01T10:07:39.370Z,997.57
2018-05-01T10:08:39.350Z,997.50
2018-05-01T10:09:39.310Z,997.49
2018-05-01T10:10:39.294Z,997.62
2018-05-01T10:11:39.262Z,997.66
2018-05-01T10:12:39.237Z,997.38
2018-05-01T10:13:39.247Z,997.34
2018-05-01T10:14:39.181Z,997.44
2018-05-01T10:15:39.165Z,997.43
2018-05-01T10:16:39.308Z,997.40
2018-05-01T10:17:39.185Z,997.51
2018-05-01T10:18:39.088Z,997.76
2018-05-01T10:19:39.105Z,997.45
2018-05-01T10:20:39.130Z,997.72
2018-05-01T10:21:39.522Z,997.51
2018-05-01T10:22:38.979Z,997.55
2018-05-01T10:23:39.437Z,997.51
2018-05-01T10:24:39.084Z,997.57
2018-05-01T10:25:39.456Z,997.45
2018-05-01T10:26:38.875Z,997.57
2018-05-01T10:27:38.847Z,997.41
2018-05-01T10:28:38.851Z,997.57
2018-05-01T10:29:38.795Z,997.47
2018-05-01T10:30:38.768Z,997.44
2018-05-01T10:31:38.744Z,997.57
2018-05-01T10:32:38.720Z,997.53
2018-05-01T10:33:38.693Z,997.50
2018-05-01T10:34:38.666Z,997.50
2018-05-01T10:35:38.660Z,997.49
2018-05-01T10:36:38.610Z,997.45
2018-05-01T10:37:38.584Z,997.60
2018-05-01T10:38:38.594Z,997.50
2018-05-01T10:39:38.533Z,997.59
2018-05-01T10:40:38.513Z,997.78
2018-05-01T10:41:38.561Z,997.48
2018-05-01T10:42:38.461Z,997.58
2018-05-01T10:43:38.429Z,997.56
2018-05-01T10:44:38.416Z,997.52
2018-05-01T10:45:38.378Z,997.70
2018-05-01T10:46:38.348Z,997.67
2018-05-01T10:47:38.332Z,997.73
2018-05-01T10:48:38.336Z,997.61
2018-05-01T10:49:38.294Z,997.74
2018-05-01T10:50:38.251Z,997.68
2018-05-01T10:51:38.230Z,997.69
2018-05-01T10:52:38.213Z,997.69
2018-05-01T10:53:38.177Z,997.68
2018-05-01T10:54:38.237Z,997.78
2018-05-01T10:55:38.128Z,997.78
2018-05-01T10:56:38.109Z,997.68
2018-05-01T10:57:38.075Z,997.66
2018-05-01T10:58:38.049Z,997.65
2018-05-01T10:59:38.016Z,997.74
2018-05-01T11:00:38.037Z,997.89
2018-05-01T11:01:37.969Z,997.67
2018-05-01T11:02:37.938Z,997.67
2018-05-01T11:03:37.914Z,997.83
2018-05-01T11:04:37.892Z,997.81
2018-05-01T11:05:37.858Z,997.69
2018-05-01T11:06:37.842Z,997.81
2018-05-01T11:07:37.807Z,997.79
2018-05-01T11:08:37.791Z,997.78
2018-05-01T11:09:37.753Z,997.73
2018-05-01T11:10:37.733Z,997.75
2018-05-01T11:11:37.704Z,997.77
2018-05-01T11:12:37.681Z,997.85
2018-05-01T11:13:37.665Z,997.79
2018-05-01T11:14:37.635Z,997.90
2018-05-01T11:15:37.610Z,997.90
2018-05-01T11:16:37.582Z,997.97
2018-05-01T11:17:37.549Z,997.86
2018-05-01T11:18:37.524Z,997.92
2018-05-01T11:19:37.500Z,997.95
2018-05-01T11:20:37.483Z,997.89
2018-05-01T11:21:37.448Z,998.31
2018-05-01T11:22:37.422Z,997.90
2018-05-01T11:23:37.394Z,997.85
2018-05-01T11:24:37.400Z,997.90
2018-05-01T11:25:37.348Z,998.04
2018-05-01T11:26:37.325Z,998.09
2018-05-01T11:27:37.289Z,998.02
2018-05-01T11:28:37.308Z,998.12
2018-05-01T11:29:37.245Z,998.24
2018-05-01T11:30:37.225Z,998.23
2018-05-01T11:31:37.186Z,998.01
2018-05-01T11:32:37.171Z,997.97
2018-05-01T11:33:37.208Z,998.09
2018-05-01T11:34:37.108Z,998.16
2018-05-01T11:35:37.091Z,998.17
2018-05-01T11:36:37.067Z,998.32
2018-05-01T11:37:37.040Z,998.19
2018-05-01T11:38:37.009Z,998.17
2018-05-01T11:39:37.014Z,998.12
2018-05-01T11:40:36.988Z,998.10
2018-05-01T11:41:36.952Z,998.16
2018-05-01T11:42:36.942Z,998.34
2018-05-01T11:43:36.931Z,998.25
2018-05-01T11:44:36.865Z,998.16
2018-05-01T11:45:36.827Z,998.23
2018-05-01T11:46:36.799Z,998.28
2018-05-01T11:47:36.781Z,998.30
2018-05-01T11:48:36.754Z,998.23
2018-05-01T11:49:36.727Z,998.38
2018-05-01T11:50:36.708Z,998.25
2018-05-01T11:51:36.674Z,998.16
2018-05-01T11:52:36.648Z,998.25
2018-05-01T11:53:36.624Z,998.31
2018-05-01T11:54:36.599Z,998.36
2018-05-01T11:55:36.570Z,998.36
2018-05-01T11:56:36.546Z,998.27
2018-05-01T11:57:36.519Z,998.45
2018-05-01T11:58:36.494Z,998.36
2018-05-01T11:59:36.475Z,998.25
2018-05-01T12:00:36.448Z,998.23
2018-05-01T12:01:36.417Z,998.16
2018-05-01T12:02:36.469Z,998.22
2018-05-01T12:03:36.368Z,998.29
2018-05-01T12:04:36.341Z,998.17
2018-05-01T12:05:36.320Z,998.23
2018-05-01T12:06:36.288Z,998.27
2018-05-01T12:07:36.262Z,998.23
2018-05-01T12:08:36.243Z,998.16
2018-05-01T12:09:36.213Z,998.26
2018-05-01T12:10:36.197Z,998.23
2018-05-01T12:11:36.165Z,998.30
2018-05-01T12:12:36.140Z,998.28
2018-05-01T12:13:36.109Z,998.27
2018-05-01T12:14:36.080Z,998.34
2018-05-01T12:15:36.063Z,998.20
2018-05-01T12:16:36.033Z,998.17
2018-05-01T12:17:36.011Z,998.25
2018-05-01T12:18:36.019Z,998.20
2018-05-01T12:19:35.958Z,998.37
2018-05-01T12:20:35.931Z,998.18
2018-05-01T12:21:35.903Z,998.32
2018-05-01T12:22:35.876Z,998.27
2018-05-01T12:23:35.937Z,998.40
2018-05-01T12:24:35.833Z,998.27
2018-05-01T12:25:35.805Z,998.44
2018-05-01T12:26:35.778Z,998.40
2018-05-01T12:27:35.752Z,998.51
2018-05-01T12:28:35.733Z,998.33